Portland, Maine
Current Conditions -  °F | °C
As of 3:51 PM on Sunday 23 Nov 2014 (Local Time) from KPWM Reporting Station
Scattered Clouds Scattered Clouds  
Wind Chill: 53°   Ceiling: Unl
Heat Index: 53°   Visibility: 10mi
Dew Point: 40°   Wind: 5mph
Humidity: 61%   Direction: 150°SSE
Pressure: 30.09"   Gusts: NA
Location:  43.66°N, 70.26°W
Report Text: KPWM 232051Z 15004KT 10SM SCT060 12/04 A3009 RMK AO2 SLP189 T01170044 51010
Loading
Personal Weather Stations






























Interactive Weather Map New forecast layout! Learn more

10-Day Weather Forecast

Advertisements
Track Severe Weather on mobile